Time;durP1;ratioP1;P1;durP2;ratioP2;P2;SDS_P1;SDS_P2;PMS_P1;PMS_P2;Temp;Humidity;BMP_temperature;BMP_pressure;BME280_temperature;BME280_humidity;BME280_pressure;Samples;Min_cycle;Max_cycle;Signal;HPM_P1;HPM_P2
2022/10/09 00:00:14;;;;;;;14.07;8.63;;;;;;;12.80;91.99;99727.09;5133425;27;20197;-54
2022/10/09 00:02:43;;;;;;;11.07;8.83;;;;;;;12.79;92.55;99729.75;5132395;27;20735;-54
2022/10/09 00:05:10;;;;;;;14.03;9.17;;;;;;;12.91;91.74;99726.72;5131973;27;20193;-53
2022/10/09 00:07:36;;;;;;;18.03;9.20;;;;;;;12.97;91.36;99722.16;5131739;27;20568;-54
2022/10/09 00:10:04;;;;;;;11.60;8.93;;;;;;;12.90;91.86;99722.41;5131765;27;20196;-52
2022/10/09 00:12:31;;;;;;;9.33;8.13;;;;;;;12.84;92.05;99705.25;5131853;27;20197;-52
2022/10/09 00:14:58;;;;;;;13.60;9.30;;;;;;;12.88;92.08;99725.06;5131518;27;20197;-53
2022/10/09 00:17:25;;;;;;;16.00;8.93;;;;;;;12.95;91.78;99712.69;5131976;27;20194;-56
2022/10/09 00:19:53;;;;;;;13.60;8.83;;;;;;;12.97;91.72;99716.09;5132596;27;20194;-56
2022/10/09 00:22:20;;;;;;;14.07;8.83;;;;;;;12.94;91.75;99714.44;5132392;27;20661;-57
2022/10/09 00:24:47;;;;;;;11.53;9.20;;;;;;;12.95;91.86;99710.94;5129571;27;20198;-57
2022/10/09 00:27:14;;;;;;;11.23;8.40;;;;;;;12.90;92.32;99705.03;5132872;27;20202;-56
2022/10/09 00:29:41;;;;;;;9.57;8.63;;;;;;;12.94;92.59;99711.00;5132249;27;20230;-56
2022/10/09 00:32:08;;;;;;;12.37;8.57;;;;;;;12.90;92.89;99705.03;5132842;27;20297;-54
2022/10/09 00:34:34;;;;;;;10.13;8.67;;;;;;;12.83;93.72;99702.69;5132555;27;20204;-54
2022/10/09 00:37:03;;;;;;;11.63;8.33;;;;;;;12.77;94.12;99701.16;5132531;27;20190;-54
2022/10/09 00:39:30;;;;;;;14.67;8.10;;;;;;;12.86;92.77;99700.00;5132287;27;20201;-54
2022/10/09 00:41:57;;;;;;;13.23;7.83;;;;;;;12.82;92.87;99704.47;5132293;27;20643;-54
2022/10/09 00:44:51;;;;;;;9.30;8.37;;;;;;;12.72;93.18;99708.28;5132128;27;20285;-53
2022/10/09 00:47:23;;;;;;;13.37;8.30;;;;;;;12.65;93.42;99707.63;5132479;27;20237;-53
2022/10/09 00:49:54;;;;;;;13.47;7.93;;;;;;;12.48;93.42;99683.06;5132204;27;20224;-53
2022/10/09 00:52:24;;;;;;;8.60;7.50;;;;;;;12.64;92.71;99703.31;5131871;27;20235;-56
2022/10/09 00:54:52;;;;;;;9.70;8.20;;;;;;;12.62;92.80;99706.91;5132206;27;20194;-56
2022/10/09 00:57:20;;;;;;;8.90;8.07;;;;;;;12.49;93.53;99700.41;5132397;27;20204;-56
2022/10/09 00:59:47;;;;;;;10.90;8.57;;;;;;;12.51;93.80;99709.88;5132344;27;20202;-57
2022/10/09 01:02:14;;;;;;;9.37;8.00;;;;;;;12.55;93.32;99705.38;5132068;27;20293;-57
2022/10/09 01:04:41;;;;;;;10.40;8.37;;;;;;;12.64;92.60;99716.34;5131980;27;20205;-57
2022/10/09 01:07:31;;;;;;;8.37;7.57;;;;;;;12.62;91.42;99706.91;5132028;27;20194;-56
2022/10/09 01:10:04;;;;;;;8.07;7.27;;;;;;;12.59;90.87;99699.19;5131811;27;20224;-57
2022/10/09 01:12:43;;;;;;;10.40;7.70;;;;;;;12.52;90.74;99705.50;5131983;27;20196;-53
2022/10/09 01:15:17;;;;;;;8.63;6.87;;;;;;;12.54;90.66;99711.50;5131901;27;20201;-54
2022/10/09 01:17:53;;;;;;;8.10;7.30;;;;;;;12.53;90.65;99712.41;5131697;27;20289;-53
2022/10/09 01:20:33;;;;;;;7.40;6.80;;;;;;;12.51;90.76;99706.41;5131768;27;20205;-54
2022/10/09 01:23:16;;;;;;;13.83;6.43;;;;;;;12.30;90.85;99674.97;5131889;27;20189;-54
2022/10/09 01:25:54;;;;;;;9.67;7.20;;;;;;;12.42;91.22;99696.28;5131528;27;20196;-54
2022/10/09 01:28:27;;;;;;;8.20;7.00;;;;;;;12.46;91.52;99705.69;5131679;27;20692;-53
2022/10/09 01:30:55;;;;;;;6.53;6.03;;;;;;;12.47;91.45;99704.81;5131530;27;20194;-53
2022/10/09 01:33:22;;;;;;;11.63;7.10;;;;;;;12.49;91.36;99697.81;5131363;27;20204;-52
2022/10/09 01:35:49;;;;;;;11.10;7.33;;;;;;;12.53;91.13;99699.38;5131213;27;20248;-53
2022/10/09 01:38:17;;;;;;;7.40;6.70;;;;;;;12.55;90.54;99708.84;5131426;27;20198;-53
2022/10/09 01:40:44;;;;;;;7.63;6.70;;;;;;;12.45;90.78;99693.59;5131414;27;20194;-54
2022/10/09 01:43:11;;;;;;;8.03;7.03;;;;;;;12.46;91.14;99705.69;5131404;27;20204;-52
2022/10/09 01:45:42;;;;;;;12.77;7.83;;;;;;;12.31;91.40;99689.69;5131171;27;20204;-53
2022/10/09 01:48:14;;;;;;;10.53;7.37;;;;;;;12.38;92.06;99707.72;5131052;27;20276;-54
2022/10/09 01:50:45;;;;;;;8.83;8.00;;;;;;;12.34;92.09;99710.41;5131288;27;20741;-53
2022/10/09 01:53:18;;;;;;;8.17;6.80;;;;;;;12.30;92.35;99710.59;5131359;27;20200;-53
2022/10/09 01:55:51;;;;;;;13.73;6.97;;;;;;;12.35;92.15;99716.47;5131250;27;20277;-53
2022/10/09 01:58:22;;;;;;;7.50;6.80;;;;;;;12.37;91.56;99706.88;5130907;27;20194;-53
2022/10/09 02:00:56;;;;;;;8.03;7.23;;;;;;;12.40;91.16;99717.19;5130972;27;20572;-53
2022/10/09 02:03:25;;;;;;;9.97;7.67;;;;;;;12.18;91.04;99679.75;5131166;27;20225;-54
2022/10/09 02:05:54;;;;;;;8.57;7.60;;;;;;;12.35;90.82;99712.13;5131273;27;20658;-54
2022/10/09 02:08:23;;;;;;;8.07;6.90;;;;;;;12.33;91.80;99723.47;5130742;27;20228;-54
2022/10/09 02:10:55;;;;;;;8.27;7.30;;;;;;;12.33;91.65;99720.88;5130868;27;20307;-55
2022/10/09 02:13:23;;;;;;;9.33;7.10;;;;;;;12.25;92.36;99715.94;5130680;27;20254;-52
2022/10/09 02:15:56;;;;;;;11.60;7.13;;;;;;;12.34;92.11;99715.63;5130984;27;20193;-53
2022/10/09 02:18:31;;;;;;;8.23;7.43;;;;;;;12.26;92.27;99720.22;5130895;27;20666;-53
2022/10/09 02:21:07;;;;;;;9.97;7.80;;;;;;;12.16;93.13;99718.81;5130634;27;20208;-53
2022/10/09 02:23:37;;;;;;;8.60;7.07;;;;;;;12.01;94.08;99716.69;5130420;27;20194;-53
2022/10/09 02:26:04;;;;;;;12.90;7.90;;;;;;;11.99;94.34;99723.69;5130526;27;20202;-53
2022/10/09 02:28:32;;;;;;;7.30;6.70;;;;;;;11.99;94.54;99715.91;5130186;27;20221;-54
2022/10/09 02:31:06;;;;;;;8.47;7.17;;;;;;;12.08;94.19;99722.53;5130501;27;20209;-54
2022/10/09 02:33:34;;;;;;;8.17;7.43;;;;;;;12.03;94.42;99721.84;5130510;27;20612;-58
2022/10/09 02:36:01;;;;;;;7.63;7.03;;;;;;;12.01;94.04;99724.50;5130888;27;20194;-55
2022/10/09 02:38:28;;;;;;;8.40;7.63;;;;;;;12.03;94.42;99727.91;5130197;27;20251;-56
2022/10/09 02:40:58;;;;;;;9.83;7.40;;;;;;;11.94;94.33;99733.41;5130726;27;20197;-56
2022/10/09 02:43:25;;;;;;;7.57;6.83;;;;;;;11.96;94.73;99736.81;5130396;27;20581;-56
2022/10/09 02:45:51;;;;;;;10.37;7.10;;;;;;;11.82;94.66;99705.19;5130320;27;20284;-56
2022/10/09 02:48:20;;;;;;;7.63;6.87;;;;;;;12.04;94.61;99726.16;5130209;27;20288;-56
2022/10/09 02:50:47;;;;;;;8.13;7.30;;;;;;;11.97;95.22;99728.94;5130078;27;20197;-58
2022/10/09 02:53:14;;;;;;;13.40;7.87;;;;;;;11.95;95.30;99727.31;5130155;27;20200;-57
2022/10/09 02:55:40;;;;;;;8.53;7.30;;;;;;;12.01;95.28;99729.72;5130204;28;20200;-56
2022/10/09 02:58:07;;;;;;;8.10;7.33;;;;;;;11.87;96.48;99731.88;5130110;28;20621;-56
2022/10/09 03:00:34;;;;;;;8.50;7.70;;;;;;;11.86;96.51;99735.38;5129889;28;20193;-56
2022/10/09 03:03:01;;;;;;;8.97;6.77;;;;;;;11.82;97.31;99736.38;5130084;28;20204;-56
2022/10/09 03:05:29;;;;;;;10.27;7.50;;;;;;;11.86;97.21;99736.22;5130714;27;20704;-57
2022/10/09 03:07:57;;;;;;;8.43;7.57;;;;;;;11.85;97.37;99739.72;5134585;27;20218;-57
2022/10/09 03:10:24;;;;;;;13.57;7.47;;;;;;;11.82;97.82;99741.59;5134122;27;20278;-57
2022/10/09 03:12:51;;;;;;;8.13;7.43;;;;;;;11.85;97.56;99738.91;5134378;27;20194;-54
2022/10/09 03:15:18;;;;;;;8.07;7.33;;;;;;;11.80;97.56;99735.56;5134177;27;20198;-54
2022/10/09 03:17:45;;;;;;;7.93;7.13;;;;;;;11.80;97.81;99738.19;5132335;27;20196;-57
2022/10/09 03:20:12;;;;;;;8.53;6.97;;;;;;;11.80;98.04;99732.97;5133450;27;20198;-57
2022/10/09 03:22:40;;;;;;;7.57;6.83;;;;;;;11.79;98.11;99734.72;5133016;27;20194;-57
2022/10/09 03:25:08;;;;;;;7.07;6.37;;;;;;;11.80;97.99;99733.81;5133232;27;20194;-56
2022/10/09 03:27:35;;;;;;;8.20;6.97;;;;;;;11.84;97.83;99743.25;5132927;27;20194;-56
2022/10/09 03:30:02;;;;;;;7.37;6.67;;;;;;;11.80;97.47;99741.63;5132400;27;20233;-56
2022/10/09 03:32:29;;;;;;;7.40;6.70;;;;;;;11.78;97.93;99742.56;5133005;27;20200;-53
2022/10/09 03:34:55;;;;;;;9.83;6.90;;;;;;;11.78;98.11;99742.56;5133176;27;20285;-52
2022/10/09 03:37:22;;;;;;;7.67;6.37;;;;;;;11.77;98.60;99746.91;5133580;27;20267;-53
2022/10/09 03:39:51;;;;;;;8.00;6.67;;;;;;;11.78;98.07;99745.16;5133799;27;20692;-53
2022/10/09 03:42:18;;;;;;;7.07;6.37;;;;;;;11.78;97.97;99748.63;5133257;27;20281;-52
2022/10/09 03:44:44;;;;;;;7.10;6.50;;;;;;;11.65;98.38;99716.91;5132997;27;20204;-52
2022/10/09 03:47:11;;;;;;;9.13;6.73;;;;;;;11.79;98.37;99747.72;5133510;27;20206;-52
2022/10/09 03:49:38;;;;;;;8.13;6.87;;;;;;;11.76;98.83;99749.56;5133774;27;20605;-53
2022/10/09 03:52:05;;;;;;;7.83;7.20;;;;;;;11.76;98.58;99749.56;5133704;27;20194;-53
2022/10/09 03:54:32;;;;;;;7.90;6.87;;;;;;;11.77;98.77;99743.47;5133297;27;20194;-53
2022/10/09 03:57:00;;;;;;;10.63;7.47;;;;;;;11.75;98.95;99743.50;5133585;27;20208;-52
2022/10/09 03:59:27;;;;;;;7.37;6.67;;;;;;;11.73;98.93;99747.03;5133155;27;20281;-52
2022/10/09 04:01:54;;;;;;;7.27;6.60;;;;;;;11.75;98.82;99743.50;5132719;27;20197;-52
2022/10/09 04:04:21;;;;;;;6.67;6.17;;;;;;;11.81;98.60;99748.53;5133033;27;20226;-52
2022/10/09 04:06:48;;;;;;;7.33;6.67;;;;;;;11.82;98.27;99750.25;5133241;27;20197;-52
2022/10/09 04:09:15;;;;;;;7.33;6.70;;;;;;;11.85;98.37;99744.91;5133306;27;20218;-53
2022/10/09 04:11:42;;;;;;;9.80;7.67;;;;;;;11.82;98.03;99734.63;5133069;27;20212;-56
2022/10/09 04:14:10;;;;;;;8.17;6.93;;;;;;;11.92;97.58;99745.59;5132330;27;20281;-56
2022/10/09 04:16:37;;;;;;;7.90;7.00;;;;;;;11.93;97.80;99750.75;5128858;27;20269;-56
2022/10/09 04:19:04;;;;;;;7.73;7.00;;;;;;;11.88;97.60;99741.38;5130955;27;20193;-56
2022/10/09 04:21:32;;;;;;;9.87;7.60;;;;;;;11.91;97.91;99754.31;5131702;27;20643;-57
2022/10/09 04:23:59;;;;;;;8.43;7.10;;;;;;;11.90;98.01;99750.84;5128841;27;20205;-56
2022/10/09 04:26:26;;;;;;;8.63;6.53;;;;;;;11.88;98.27;99752.63;5131332;27;20205;-56
2022/10/09 04:28:53;;;;;;;7.70;7.00;;;;;;;11.83;98.57;99757.16;5131258;27;20225;-56
2022/10/09 04:31:22;;;;;;;9.07;7.40;;;;;;;11.83;99.08;99759.75;5131132;27;20602;-56
2022/10/09 04:33:48;;;;;;;7.13;6.53;;;;;;;11.85;98.87;99760.53;5131607;27;20198;-56
2022/10/09 04:36:15;;;;;;;7.93;7.23;;;;;;;11.86;98.53;99749.22;5130043;27;20272;-56
2022/10/09 04:38:42;;;;;;;9.20;6.90;;;;;;;11.98;98.10;99764.47;5127531;27;20239;-55
2022/10/09 04:41:10;;;;;;;8.33;7.30;;;;;;;12.08;97.66;99772.84;5130104;27;20186;-56
2022/10/09 04:43:37;;;;;;;8.33;7.40;;;;;;;12.21;96.86;99770.72;5131287;27;20204;-56
2022/10/09 04:46:05;;;;;;;10.63;7.53;;;;;;;12.24;96.08;99768.88;5132235;27;20196;-52
2022/10/09 04:48:37;;;;;;;15.23;7.43;;;;;;;12.17;95.79;99772.56;5131912;27;20217;-52
2022/10/09 04:51:05;;;;;;;9.33;7.97;;;;;;;12.16;96.55;99776.06;5131753;27;20220;-52
2022/10/09 04:53:32;;;;;;;8.20;6.73;;;;;;;12.20;96.77;99777.66;5131513;27;20673;-52
2022/10/09 04:56:02;;;;;;;8.20;7.50;;;;;;;12.32;96.24;99769.47;5131961;27;20285;-52
2022/10/09 04:58:29;;;;;;;7.83;7.10;;;;;;;12.50;94.34;99775.84;5131529;27;20608;-52
2022/10/09 05:00:57;;;;;;;7.90;7.10;;;;;;;12.42;93.37;99748.34;5131874;27;20193;-52
2022/10/09 05:03:24;;;;;;;7.80;6.90;;;;;;;12.65;92.62;99780.53;5131354;27;20197;-53
2022/10/09 05:05:52;;;;;;;8.23;6.97;;;;;;;12.83;91.54;99781.69;5130985;27;20190;-52
2022/10/09 05:08:19;;;;;;;7.70;7.00;;;;;;;13.07;90.14;99788.69;5128516;27;20684;-52
2022/10/09 05:10:46;;;;;;;9.03;7.73;;;;;;;13.21;88.73;99789.97;5131218;27;20214;-51
2022/10/09 05:13:13;;;;;;;12.17;7.90;;;;;;;13.48;86.87;99791.59;5131983;27;20202;-53
2022/10/09 05:15:40;;;;;;;8.20;7.50;;;;;;;13.60;85.79;99788.56;5130963;27;20201;-53
2022/10/09 05:18:06;;;;;;;8.20;7.60;;;;;;;14.24;82.67;99788.69;5131181;27;20600;-53
2022/10/09 05:20:33;;;;;;;11.87;7.13;;;;;;;15.49;76.62;99786.09;5130780;27;20752;-53
2022/10/09 05:23:02;;;;;;;9.80;6.97;;;;;;;16.80;68.72;99793.91;5130561;27;20205;-53
2022/10/09 05:25:29;;;;;;;7.90;7.20;;;;;;;17.65;63.00;99800.00;5128040;27;20208;-53
2022/10/09 05:27:55;;;;;;;7.63;6.83;;;;;;;18.12;60.05;99800.03;5130278;27;20194;-53
2022/10/09 05:30:22;;;;;;;6.67;6.07;;;;;;;18.63;58.02;99789.31;5129757;27;20229;-53
2022/10/09 05:32:49;;;;;;;7.57;6.50;;;;;;;19.17;55.74;99806.31;5127754;27;20193;-52
2022/10/09 05:35:16;;;;;;;9.35;6.55;;;;;;;19.19;54.99;99812.31;5130215;27;20190;-57
2022/10/09 05:37:44;;;;;;;10.60;7.13;;;;;;;19.65;53.71;99809.56;5129966;27;20198;-57
2022/10/09 05:40:12;;;;;;;7.70;5.95;;;;;;;20.18;51.65;99819.44;5130461;27;20555;-57
2022/10/09 05:42:39;;;;;;;7.63;6.95;;;;;;;20.31;50.81;99826.44;5130206;27;20289;-57
2022/10/09 05:45:08;;;;;;;7.10;6.50;;;;;;;20.62;49.99;99819.22;5130025;27;20194;-57
2022/10/09 05:47:35;;;;;;;9.70;6.32;;;;;;;20.41;50.18;99825.91;5129886;27;20194;-57
2022/10/09 05:50:02;;;;;;;6.30;5.82;;;;;;;20.21;50.67;99827.13;5129716;27;20607;-57
2022/10/09 05:52:29;;;;;;;9.07;6.60;;;;;;;20.41;50.01;99831.16;5127104;27;20702;-58
2022/10/09 05:54:56;;;;;;;9.68;6.03;;;;;;;20.32;50.45;99827.28;5129289;27;20610;-58
2022/10/09 05:57:25;;;;;;;6.75;6.07;;;;;;;21.05;48.75;99830.44;5126674;27;20198;-60
2022/10/09 05:59:52;;;;;;;7.18;6.47;;;;;;;21.22;47.88;99840.72;5129580;27;20263;-59
2022/10/09 06:02:18;;;;;;;10.20;6.22;;;;;;;21.77;46.59;99844.88;5130554;27;20288;-58
2022/10/09 06:04:45;;;;;;;10.60;6.25;;;;;;;22.54;44.87;99838.50;5131082;27;20198;-57
2022/10/09 06:07:12;;;;;;;8.65;6.55;;;;;;;23.02;43.73;99838.50;5130512;27;20198;-59
2022/10/09 06:09:39;;;;;;;7.85;6.43;;;;;;;23.06;43.31;99846.09;5130293;27;20217;-59
2022/10/09 06:12:06;;;;;;;8.38;6.53;;;;;;;22.96;43.25;99850.38;5129262;27;20440;-56
2022/10/09 06:14:34;;;;;;;8.35;5.78;;;;;;;22.95;43.31;99846.03;5126200;27;20780;-57
2022/10/09 06:17:01;;;;;;;7.68;5.90;;;;;;;23.42;42.56;99847.75;5129905;27;20194;-57
2022/10/09 06:19:28;;;;;;;6.18;5.60;;;;;;;23.89;41.27;99849.41;5130694;27;20649;-56
2022/10/09 06:21:55;;;;;;;7.15;6.40;;;;;;;23.79;41.24;99850.25;5130873;27;20190;-57
2022/10/09 06:24:24;;;;;;;6.40;5.82;;;;;;;24.53;40.27;99848.75;5130262;27;20204;-57
2022/10/09 06:26:51;;;;;;;7.20;6.50;;;;;;;25.16;38.96;99860.38;5129191;27;20242;-58
2022/10/09 06:29:18;;;;;;;7.18;6.45;;;;;;;26.22;36.88;99860.97;5129897;27;20715;-58
2022/10/09 06:31:46;;;;;;;6.97;6.47;;;;;;;26.54;35.91;99861.63;5130112;27;20244;-58
2022/10/09 06:34:13;;;;;;;6.80;6.22;;;;;;;25.73;36.85;99862.59;5129407;27;20200;-57
2022/10/09 06:36:40;;;;;;;17.48;6.88;;;;;;;26.16;36.58;99862.38;5130217;27;20587;-58
2022/10/09 06:39:08;;;;;;;9.32;6.28;;;;;;;26.20;36.52;99866.41;5130386;27;20219;-58
2022/10/09 06:41:35;;;;;;;15.10;6.57;;;;;;;26.82;35.71;99873.31;5129439;27;20221;-58
2022/10/09 06:44:04;;;;;;;6.00;5.55;;;;;;;27.29;34.41;99868.16;5130083;27;20194;-58
2022/10/09 06:46:32;;;;;;;8.30;6.18;;;;;;;26.24;35.77;99877.66;5130215;27;20202;-57
2022/10/09 06:49:02;;;;;;;11.32;6.72;;;;;;;26.50;35.61;99884.22;5130339;27;20559;-57
2022/10/09 06:51:30;;;;;;;9.52;6.82;;;;;;;26.58;35.17;99863.06;5129616;27;20231;-57
2022/10/09 06:53:58;;;;;;;10.32;7.05;;;;;;;26.38;35.44;99883.47;5128194;27;20600;-57
2022/10/09 06:56:27;;;;;;;7.07;6.30;;;;;;;25.66;36.57;99885.34;5128226;28;20208;-58
2022/10/09 06:58:54;;;;;;;7.22;6.50;;;;;;;25.42;37.25;99876.78;5128677;28;20193;-58
2022/10/09 07:01:23;;;;;;;10.30;6.65;;;;;;;24.44;38.76;99879.53;5128444;28;20558;-58
2022/10/09 07:03:54;;;;;;;7.85;6.38;;;;;;;23.51;40.55;99875.38;5127974;28;20224;-59
2022/10/09 07:06:24;;;;;;;7.93;7.22;;;;;;;21.88;44.09;99863.47;5130137;28;20300;-61
2022/10/09 07:08:52;;;;;;;7.72;7.03;;;;;;;21.37;46.02;99862.59;5130094;28;20211;-54
2022/10/09 07:11:21;;;;;;;7.32;6.63;;;;;;;21.17;46.52;99871.00;5130093;28;20228;-54
2022/10/09 07:13:49;;;;;;;9.43;7.13;;;;;;;21.00;47.14;99869.47;5129607;28;20665;-54
2022/10/09 07:16:20;;;;;;;7.47;6.88;;;;;;;20.75;48.36;99864.97;5128173;28;20686;-59
2022/10/09 07:18:47;;;;;;;9.82;8.32;;;;;;;20.59;48.84;99866.91;5126784;28;20494;-53
2022/10/09 07:21:14;;;;;;;8.15;7.50;;;;;;;20.39;49.41;99859.41;5128074;28;20193;-53
2022/10/09 07:23:43;;;;;;;8.68;7.45;;;;;;;20.26;49.93;99848.78;5128468;28;20228;-53
2022/10/09 07:26:12;;;;;;;11.35;7.82;;;;;;;20.39;49.97;99856.78;5128660;28;20197;-54
2022/10/09 07:28:40;;;;;;;11.77;6.93;;;;;;;20.49;49.94;99860.53;5129037;28;20222;-53
2022/10/09 07:31:08;;;;;;;7.43;6.47;;;;;;;20.63;49.52;99861.34;5128332;28;20304;-53
2022/10/09 07:33:35;;;;;;;8.82;6.88;;;;;;;20.57;49.75;99860.88;5129376;28;20200;-53
2022/10/09 07:36:03;;;;;;;8.73;6.43;;;;;;;20.68;49.43;99866.28;5129992;28;20233;-54
2022/10/09 07:38:30;;;;;;;7.72;6.82;;;;;;;20.74;49.30;99865.91;5129577;28;20202;-59
2022/10/09 07:41:02;;;;;;;8.23;7.13;;;;;;;20.44;50.21;99867.88;5129558;28;20186;-59
2022/10/09 07:43:29;;;;;;;8.23;6.65;;;;;;;20.49;50.31;99864.00;5129475;28;20654;-59
2022/10/09 07:45:59;;;;;;;7.72;6.97;;;;;;;20.66;49.83;99869.03;5129626;28;20250;-53
2022/10/09 07:48:26;;;;;;;10.98;7.22;;;;;;;20.60;49.86;99873.88;5129524;28;20217;-55
2022/10/09 07:50:53;;;;;;;7.45;6.65;;;;;;;20.41;49.98;99879.47;5129091;28;20225;-53
2022/10/09 07:53:21;;;;;;;7.18;6.57;;;;;;;20.51;50.24;99879.72;5133237;27;20689;-55
2022/10/09 07:55:49;;;;;;;9.85;6.40;;;;;;;20.54;49.88;99864.53;5133394;27;20285;-54
2022/10/09 07:58:17;;;;;;;7.47;6.65;;;;;;;20.40;50.37;99877.78;5131715;27;20348;-54
2022/10/09 08:00:44;;;;;;;6.95;6.45;;;;;;;20.44;50.32;99879.25;5133131;27;20190;-54
2022/10/09 08:03:11;;;;;;;13.70;6.80;;;;;;;20.66;49.69;99878.72;5133178;27;20201;-54
2022/10/09 08:05:38;;;;;;;7.13;6.43;;;;;;;20.61;50.08;99875.56;5133143;27;20677;-54
2022/10/09 08:08:05;;;;;;;7.10;6.38;;;;;;;20.58;50.26;99876.59;5133475;27;20194;-53
2022/10/09 08:10:32;;;;;;;7.20;6.55;;;;;;;20.73;50.06;99872.13;5133011;27;20240;-54
2022/10/09 08:12:59;;;;;;;9.75;5.95;;;;;;;20.60;50.32;99873.88;5133110;27;20749;-54
2022/10/09 08:15:28;;;;;;;7.45;6.50;;;;;;;20.83;50.12;99869.75;5133003;27;20198;-53
2022/10/09 08:17:55;;;;;;;8.93;6.13;;;;;;;20.92;49.74;99875.25;5132674;27;20309;-54
2022/10/09 08:20:22;;;;;;;9.70;6.32;;;;;;;20.90;49.65;99876.28;5132942;27;20281;-53
2022/10/09 08:22:49;;;;;;;14.10;6.28;;;;;;;20.90;49.71;99874.50;5132614;27;20198;-59
2022/10/09 08:25:16;;;;;;;11.63;6.70;;;;;;;20.99;49.65;99879.16;5133010;27;20665;-59
2022/10/09 08:27:43;;;;;;;8.60;7.07;;;;;;;20.67;50.65;99877.78;5132581;27;20237;-59
2022/10/09 08:30:11;;;;;;;8.43;6.22;;;;;;;20.57;51.01;99868.78;5132552;27;20233;-58
2022/10/09 08:32:40;;;;;;;7.95;6.30;;;;;;;20.62;50.88;99861.44;5132336;27;20198;-59
2022/10/09 08:35:08;;;;;;;9.85;6.60;;;;;;;20.68;50.78;99871.56;5132858;27;20663;-59
2022/10/09 08:37:35;;;;;;;7.38;6.68;;;;;;;20.73;51.02;99861.59;5132338;27;20198;-59
2022/10/09 08:40:02;;;;;;;7.35;6.68;;;;;;;20.93;50.49;99863.75;5132279;27;20196;-60
2022/10/09 08:42:37;;;;;;;11.57;6.55;;;;;;;20.82;50.22;99842.50;5132828;27;20713;-59
2022/10/09 08:45:04;;;;;;;8.05;6.47;;;;;;;20.92;50.26;99855.94;5132122;27;20681;-59
2022/10/09 08:47:38;;;;;;;6.95;6.35;;;;;;;20.79;50.53;99853.25;5132185;27;20225;-59
2022/10/09 08:50:13;;;;;;;7.30;5.85;;;;;;;20.73;50.72;99853.66;5131544;27;20278;-58
2022/10/09 08:52:49;;;;;;;10.30;6.95;;;;;;;20.55;50.60;99847.78;5130037;27;20208;-61
2022/10/09 08:55:20;;;;;;;6.60;6.05;;;;;;;20.41;51.04;99847.00;5117584;27;20208;-59
2022/10/09 08:57:50;;;;;;;7.85;6.03;;;;;;;20.53;50.80;99841.78;5131601;27;20209;-60
2022/10/09 09:00:19;;;;;;;9.68;5.95;;;;;;;20.65;50.99;99840.13;5132327;27;20261;-60
2022/10/09 09:03:21;;;;;;;7.07;6.38;;;;;;;20.63;50.96;99840.22;5131820;27;20220;-61
2022/10/09 09:06:00;;;;;;;8.82;6.47;;;;;;;20.69;50.70;99823.16;5131643;27;20197;-61
2022/10/09 09:08:40;;;;;;;7.53;6.50;;;;;;;20.99;50.45;99844.88;5132203;27;20583;-61
2022/10/09 09:11:17;;;;;;;8.25;7.43;;;;;;;21.13;49.87;99837.81;5131968;27;20214;-57
2022/10/09 09:13:57;;;;;;;13.02;9.68;;;;;;;21.31;49.45;99839.28;5131703;27;20208;-60
2022/10/09 09:16:33;;;;;;;10.15;8.85;;;;;;;21.16;49.70;99841.13;5130358;27;20280;-60
2022/10/09 09:19:16;;;;;;;13.90;11.50;;;;;;;21.09;49.40;99831.06;5130928;27;20197;-60
2022/10/09 09:21:50;;;;;;;10.45;8.23;;;;;;;20.98;49.31;99827.38;5128689;27;20237;-60
2022/10/09 09:24:19;;;;;;;10.18;7.63;;;;;;;21.13;49.17;99824.63;5130836;27;20665;-59
2022/10/09 09:26:50;;;;;;;11.20;6.88;;;;;;;21.08;48.84;99816.19;5131346;27;20200;-60
2022/10/09 09:29:22;;;;;;;6.93;5.85;;;;;;;21.14;49.10;99826.31;5131598;27;20240;-59
2022/10/09 09:31:52;;;;;;;7.28;6.57;;;;;;;21.22;49.41;99821.41;5131626;27;20253;-60
2022/10/09 09:34:24;;;;;;;6.47;5.97;;;;;;;21.34;49.01;99820.56;5131709;27;20709;-59
2022/10/09 09:36:55;;;;;;;7.32;5.57;;;;;;;21.45;48.85;99825.09;5131290;27;20200;-59
2022/10/09 09:39:25;;;;;;;7.40;6.15;;;;;;;21.54;48.59;99821.84;5131028;27;20634;-60
2022/10/09 09:41:55;;;;;;;6.60;6.07;;;;;;;21.53;48.58;99818.38;5131168;27;20282;-60
2022/10/09 09:44:22;;;;;;;11.02;6.10;;;;;;;21.56;48.51;99804.91;5130377;27;20658;-60
2022/10/09 09:46:49;;;;;;;7.80;5.40;;;;;;;21.71;48.46;99817.06;5130506;27;20190;-59
2022/10/09 09:49:18;;;;;;;6.57;5.15;;;;;;;21.76;47.83;99806.19;5131284;27;20193;-61
2022/10/09 09:51:46;;;;;;;7.55;5.90;;;;;;;21.82;48.21;99807.53;5131069;27;20627;-61
2022/10/09 09:54:21;;;;;;;10.68;5.80;;;;;;;21.60;47.73;99808.22;5131685;27;20205;-60
2022/10/09 09:56:50;;;;;;;5.95;5.43;;;;;;;21.73;47.70;99801.97;5130836;27;20201;-60
2022/10/09 09:59:31;;;;;;;5.43;5.03;;;;;;;21.61;47.78;99804.63;5130699;27;20280;-59
2022/10/09 10:02:02;;;;;;;6.38;5.88;;;;;;;21.71;47.66;99805.66;5127803;27;20245;-61
2022/10/09 10:04:30;;;;;;;5.60;5.13;;;;;;;21.85;47.25;99809.97;5130721;27;20196;-60
2022/10/09 10:06:57;;;;;;;5.70;5.25;;;;;;;21.98;47.18;99800.25;5138721;27;20197;-61
2022/10/09 10:09:25;;;;;;;5.53;5.13;;;;;;;21.92;46.71;99803.31;5141604;27;20203;-60
2022/10/09 10:11:56;;;;;;;6.25;4.75;;;;;;;21.89;46.11;99803.53;5143003;27;20216;-61
2022/10/09 10:14:22;;;;;;;5.55;5.15;;;;;;;21.97;46.32;99809.13;5151439;27;20204;-62
2022/10/09 10:16:51;;;;;;;5.82;5.40;;;;;;;21.91;46.37;99802.44;5141808;27;20212;-60
2022/10/09 10:19:21;;;;;;;5.13;4.72;;;;;;;21.91;46.70;99797.16;5142446;27;20203;-62
2022/10/09 10:21:54;;;;;;;9.43;5.25;;;;;;;22.04;46.29;99798.03;5151294;27;20199;-61
2022/10/09 10:24:28;;;;;;;6.53;4.63;;;;;;;22.12;45.35;99794.84;5133019;27;20274;-52
2022/10/09 10:26:59;;;;;;;8.57;5.38;;;;;;;22.25;45.55;99789.50;5138220;27;20190;-54
2022/10/09 10:29:32;;;;;;;5.47;4.90;;;;;;;22.28;45.33;99795.41;5133719;27;20233;-52
2022/10/09 10:32:05;;;;;;;8.50;5.30;;;;;;;22.27;45.56;99788.44;5136961;27;20608;-52
2022/10/09 10:34:38;;;;;;;5.25;4.85;;;;;;;22.24;45.36;99769.28;5139101;27;20696;-52
2022/10/09 10:37:21;;;;;;;5.13;4.63;;;;;;;22.30;45.62;99772.34;5138295;27;20185;-53
2022/10/09 10:39:52;;;;;;;4.80;4.32;;;;;;;22.39;45.11;99774.31;5137630;27;20563;-60
2022/10/09 10:42:24;;;;;;;5.22;4.82;;;;;;;22.49;45.14;99771.00;5138763;27;20251;-61
2022/10/09 10:45:00;;;;;;;6.93;5.05;;;;;;;22.53;45.56;99764.53;5124715;27;20209;-61
2022/10/09 10:47:34;;;;;;;7.65;4.82;;;;;;;22.48;45.18;99750.78;5121190;27;20212;-61
2022/10/09 10:50:01;;;;;;;5.60;5.10;;;;;;;22.66;45.35;99762.66;5127915;27;20202;-62
2022/10/09 10:52:41;;;;;;;6.20;5.38;;;;;;;22.72;45.49;99756.91;5123216;27;20654;-62
2022/10/09 10:55:27;;;;;;;4.78;4.57;;;;;;;22.74;45.20;99758.47;5129847;27;20565;-61
2022/10/09 10:58:03;;;;;;;5.97;4.72;;;;;;;22.65;45.35;99745.09;5129602;28;20204;-60
2022/10/09 11:00:33;;;;;;;4.70;4.35;;;;;;;22.62;45.48;99750.59;5129999;28;20189;-60
2022/10/09 11:03:26;;;;;;;6.05;4.90;;;;;;;22.58;45.16;99741.19;5130058;28;20197;-61
2022/10/09 11:05:56;;;;;;;5.63;4.45;;;;;;;22.53;44.62;99752.13;5128577;28;20194;-61
2022/10/09 11:08:41;;;;;;;5.32;4.82;;;;;;;22.56;44.84;99743.13;5126133;28;20194;-62
2022/10/09 11:11:18;;;;;;;4.38;3.88;;;;;;;22.58;44.86;99738.56;5128135;28;20661;-62
2022/10/09 11:13:56;;;;;;;5.22;4.43;;;;;;;22.58;44.63;99733.25;5129804;28;20198;-61
2022/10/09 11:16:36;;;;;;;4.78;4.47;;;;;;;22.54;45.40;99737.13;5130731;28;20193;-61
2022/10/09 11:19:16;;;;;;;8.57;4.30;;;;;;;22.61;45.15;99733.03;5129967;28;20535;-61
2022/10/09 11:21:52;;;;;;;5.30;4.85;;;;;;;22.59;44.91;99725.22;5128327;28;20696;-61
2022/10/09 11:24:35;;;;;;;4.78;3.95;;;;;;;22.63;45.51;99729.31;5130162;28;20196;-61
2022/10/09 11:27:10;;;;;;;4.95;4.25;;;;;;;22.66;44.95;99730.91;5131349;27;20250;-61
2022/10/09 11:29:42;;;;;;;4.60;4.25;;;;;;;22.74;44.60;99731.16;5133504;27;20225;-61
2022/10/09 11:32:18;;;;;;;5.38;4.32;;;;;;;22.79;44.38;99731.69;5134094;27;20261;-61
2022/10/09 11:34:51;;;;;;;5.43;4.07;;;;;;;22.68;44.11;99726.34;5133573;27;20592;-61
2022/10/09 11:37:22;;;;;;;7.90;4.55;;;;;;;22.60;43.92;99711.03;5133775;27;20193;-61
2022/10/09 11:39:49;;;;;;;4.70;4.35;;;;;;;22.61;44.15;99722.47;5133581;27;20193;-61
2022/10/09 11:42:21;;;;;;;4.70;4.40;;;;;;;22.62;44.81;99713.56;5133539;27;20591;-60